Guidonia Montecelio, Italia

02:18 PM CEST del 02 Agosto 2015 (GMT +0200)
Tivoli (RM), Roma | | Change Station
CLOSE
Current Station
Stazione meteo personale
Location: Tivoli, LAZIO
Altitudine: 830 ft
Stazioni meteo nelle vicinanze

Alt. 830 ft 41.96 °N, 12.80 °E | Updated 44 seconds ago

Clear
Sereno
91.2 °F
Sembra 96 °F
N
4.0
Vento Variabile Vento da SSO
Gusts 7.0 mph

Oggi
Massima -- | Minima -- °F
--% Possibilità di precip.
Ieri
Massima -- | Minima -- °F
Precip. -- in
6:03 AM 8:27 PM
Gobba a levante, 94% visible
Pressione 29.98 in
Visibilità -9999.0 miglia
Nuvole
Indice di calore 96 °F
Punto di rugiada 69 °F
Umidità 48%
Piovosità 0.00 in
Spessore del manto nevoso Non disponibile.
Raggi UV Non disponibile.
Polline Non disponibile.
Qualità dell'aria Non disponibile.
Flu Activity Non disponibile.
METAR LIRU 021150Z 22009KT CAVOK 32/20 Q1015

More Conditions Fewer Conditions

Pressione 29.98 in
Visibilità -9999.0 miglia
Nuvole
Indice di calore 96 °F
Punto di rugiada 69 °F
Umidità 48%
Piovosità 0.00 in
Spessore del manto nevoso Non disponibile.
Raggi UV Non disponibile.
Polline Non disponibile.
Qualità dell'aria Non disponibile.
Flu Activity Non disponibile.
METAR LIRU 021150Z 22009KT CAVOK 32/20 Q1015

More Conditions Fewer Conditions

10-Day Weather Forecast

×

Almanac

Astronomia

Aug. 02, 2015 Alba Tramonto
Ora attuale
Crepuscolo civile
Crepuscolo nautico
Crepuscolo astronomico
Luna
Estensione della luce visibile
Lunghezza del giorno
Tomorrow will be .
, % of the Moon is Illuminated

Gli estremi di oggi

Massime Regione Minime Regione

Community

WunderPhotos

Upload Photos

1,843,233 foto caricate!

WunderBlogs® & News

Nearby

Qualità dell'aria

  Qualità dell'aria Indice AQ Inquinante
Not available.

Profondità neve

Stazione Profondità Altitudine

Attività sismica

Città  Distanza Mag. Data & Ora
Minimo Magnitudo Mostrato è 2.5.

Temperature delle acque costiere

Località Temperatura

Stations

Stazioni meteo nelle vicinanze

Ubicazione della stazione Temp. Raffreddamento del vento Punto di rugiada Umidità Vento Precip. Alt. Aggiornato Tipo